createdAt,value
2023-01-21T00:01:22.223Z,2.80
2023-01-21T00:03:50.804Z,2.70
2023-01-21T00:06:19.374Z,2.80
2023-01-21T00:08:47.556Z,2.70
2023-01-21T00:11:16.939Z,2.70
2023-01-21T00:13:47.354Z,2.70
2023-01-21T00:16:15.864Z,2.70
2023-01-21T00:18:44.241Z,2.70
2023-01-21T00:21:12.755Z,2.70
2023-01-21T00:23:41.146Z,2.70
2023-01-21T00:26:12.619Z,2.60
2023-01-21T00:28:43.684Z,2.60
2023-01-21T00:31:14.197Z,2.70
2023-01-21T00:33:42.522Z,2.60
2023-01-21T00:36:13.121Z,2.60
2023-01-21T00:38:41.865Z,2.60
2023-01-21T00:41:12.708Z,2.60
2023-01-21T00:43:41.775Z,2.60
2023-01-21T00:46:10.889Z,2.60
2023-01-21T00:48:40.747Z,2.60
2023-01-21T00:51:09.989Z,2.60
2023-01-21T00:53:42.012Z,2.60
2023-01-21T00:56:12.668Z,2.60
2023-01-21T00:58:43.423Z,2.60
2023-01-21T01:01:14.439Z,2.60
2023-01-21T01:03:44.768Z,2.60
2023-01-21T01:06:15.896Z,2.60
2023-01-21T01:08:44.880Z,2.60
2023-01-21T01:11:15.119Z,2.50
2023-01-21T01:13:43.786Z,2.50
2023-01-21T01:16:14.661Z,2.50
2023-01-21T01:18:45.003Z,2.60
2023-01-21T01:21:15.416Z,2.50
2023-01-21T01:23:43.965Z,2.50
2023-01-21T01:26:14.455Z,2.40
2023-01-21T01:28:42.952Z,2.40
2023-01-21T01:31:14.588Z,2.40
2023-01-21T01:33:44.631Z,2.40
2023-01-21T01:36:16.293Z,2.40
2023-01-21T01:38:45.120Z,2.40
2023-01-21T01:41:17.690Z,2.30
2023-01-21T01:43:58.788Z,2.30
2023-01-21T01:46:29.511Z,2.30
2023-01-21T01:49:06.651Z,2.30
2023-01-21T01:51:45.528Z,2.30
2023-01-21T01:54:19.487Z,2.20
2023-01-21T01:56:51.605Z,2.20
2023-01-21T01:59:21.116Z,2.20
2023-01-21T02:01:50.039Z,2.20
2023-01-21T02:04:24.296Z,2.20
2023-01-21T02:06:55.671Z,2.30
2023-01-21T02:09:29.690Z,2.20
2023-01-21T02:11:59.416Z,2.30
2023-01-21T02:14:28.265Z,2.30
2023-01-21T02:17:08.913Z,2.30
2023-01-21T02:20:12.815Z,2.30
2023-01-21T02:22:51.468Z,2.30
2023-01-21T02:25:57.951Z,2.30
2023-01-21T02:29:06.513Z,2.30
2023-01-21T02:32:07.871Z,2.30
2023-01-21T02:34:44.752Z,2.30
2023-01-21T02:37:17.612Z,2.30
2023-01-21T02:40:13.074Z,2.40
2023-01-21T02:42:47.347Z,2.40
2023-01-21T02:45:25.341Z,2.40
2023-01-21T02:48:05.833Z,2.40
2023-01-21T02:50:39.704Z,2.40
2023-01-21T02:53:08.003Z,2.40
2023-01-21T02:55:38.070Z,2.40
2023-01-21T02:58:09.408Z,2.40
2023-01-21T03:00:58.908Z,2.40
2023-01-21T03:03:48.990Z,2.40
2023-01-21T03:06:42.287Z,2.40
2023-01-21T03:09:21.130Z,2.40
2023-01-21T03:12:03.983Z,2.40
2023-01-21T03:14:53.780Z,2.40
2023-01-21T03:17:33.538Z,2.40
2023-01-21T03:20:08.665Z,2.40
2023-01-21T03:22:39.676Z,2.40
2023-01-21T03:25:10.167Z,2.50
2023-01-21T03:27:42.561Z,2.40
2023-01-21T03:30:15.336Z,2.40
2023-01-21T03:32:48.242Z,2.50
2023-01-21T03:35:21.719Z,2.50
2023-01-21T03:37:55.915Z,2.50
2023-01-21T03:40:27.377Z,2.50
2023-01-21T03:42:56.620Z,2.60
2023-01-21T03:45:38.380Z,2.50
2023-01-21T03:48:17.350Z,2.50
2023-01-21T03:50:50.971Z,2.50
2023-01-21T03:53:21.149Z,2.60
2023-01-21T03:55:51.446Z,2.50
2023-01-21T03:58:20.016Z,2.50
2023-01-21T04:00:49.308Z,2.50
2023-01-21T04:03:17.961Z,2.50
2023-01-21T04:05:46.281Z,2.50
2023-01-21T04:08:15.067Z,2.50
2023-01-21T04:10:45.054Z,2.60
2023-01-21T04:13:14.009Z,2.60
2023-01-21T04:15:42.301Z,2.60
2023-01-21T04:18:10.775Z,2.60
2023-01-21T04:20:39.294Z,2.60
2023-01-21T04:23:07.849Z,2.60
2023-01-21T04:25:36.052Z,2.60
2023-01-21T04:28:06.184Z,2.60
2023-01-21T04:30:34.604Z,2.60
2023-01-21T04:33:03.138Z,2.50
2023-01-21T04:35:31.462Z,2.60
2023-01-21T04:38:00.019Z,2.60
2023-01-21T04:40:28.410Z,2.60
2023-01-21T04:42:57.093Z,2.60
2023-01-21T04:45:26.987Z,2.70
2023-01-21T04:47:55.554Z,2.70
2023-01-21T04:50:24.483Z,2.70
2023-01-21T04:52:53.143Z,2.70
2023-01-21T04:55:21.456Z,2.70
2023-01-21T04:57:50.212Z,2.70
2023-01-21T05:00:19.405Z,2.70
2023-01-21T05:02:49.356Z,2.70
2023-01-21T05:05:17.935Z,2.70
2023-01-21T05:07:46.692Z,2.80
2023-01-21T05:10:17.216Z,2.80
2023-01-21T05:12:45.933Z,2.70
2023-01-21T05:15:14.171Z,2.80
2023-01-21T05:17:42.820Z,2.80
2023-01-21T05:20:13.915Z,2.80
2023-01-21T05:22:42.417Z,2.80
2023-01-21T05:25:11.076Z,2.80
2023-01-21T05:27:39.585Z,2.80
2023-01-21T05:30:12.556Z,2.80
2023-01-21T05:32:41.084Z,2.90
2023-01-21T05:35:10.646Z,2.90
2023-01-21T05:37:40.585Z,2.90
2023-01-21T05:40:10.333Z,2.90
2023-01-21T05:42:38.939Z,2.90
2023-01-21T05:45:08.361Z,2.90
2023-01-21T05:47:37.002Z,2.90
2023-01-21T05:50:06.408Z,3.00
2023-01-21T05:52:35.030Z,2.90
2023-01-21T05:55:05.715Z,2.90
2023-01-21T05:57:34.440Z,2.90
2023-01-21T06:00:02.642Z,2.90
2023-01-21T06:02:31.671Z,3.00
2023-01-21T06:04:59.879Z,3.00
2023-01-21T06:07:28.545Z,3.00
2023-01-21T06:09:56.869Z,3.00
2023-01-21T06:12:26.798Z,3.00
2023-01-21T06:14:55.040Z,3.00
2023-01-21T06:17:23.807Z,3.00
2023-01-21T06:19:52.060Z,3.10
2023-01-21T06:22:20.627Z,3.00
2023-01-21T06:24:48.886Z,3.10
2023-01-21T06:27:17.425Z,3.10
2023-01-21T06:29:47.129Z,3.10
2023-01-21T06:32:15.589Z,3.10
2023-01-21T06:34:46.528Z,3.10
2023-01-21T06:37:15.492Z,3.10
2023-01-21T06:39:43.831Z,3.10
2023-01-21T06:42:12.371Z,3.10
2023-01-21T06:44:40.690Z,3.10
2023-01-21T06:47:10.867Z,3.20
2023-01-21T06:49:39.405Z,3.20
2023-01-21T06:52:08.418Z,3.20
2023-01-21T06:54:36.804Z,3.20
2023-01-21T06:57:05.582Z,3.20
2023-01-21T06:59:34.344Z,3.20
2023-01-21T07:02:03.197Z,3.20
2023-01-21T07:04:33.411Z,3.20
2023-01-21T07:07:02.556Z,3.20
2023-01-21T07:09:31.349Z,3.20
2023-01-21T07:12:00.060Z,3.20
2023-01-21T07:14:28.298Z,3.20
2023-01-21T07:16:57.035Z,3.20
2023-01-21T07:19:25.585Z,3.20
2023-01-21T07:21:56.391Z,3.10
2023-01-21T07:24:24.809Z,3.20
2023-01-21T07:26:53.679Z,3.20
2023-01-21T07:29:23.257Z,3.20
2023-01-21T07:31:52.438Z,3.20
2023-01-21T07:34:20.857Z,3.10
2023-01-21T07:36:49.847Z,3.10
2023-01-21T07:39:19.741Z,3.10
2023-01-21T07:41:48.470Z,3.10
2023-01-21T07:44:16.931Z,3.10
2023-01-21T07:46:45.610Z,3.10
2023-01-21T07:49:17.392Z,3.10
2023-01-21T07:51:46.460Z,3.00
2023-01-21T07:54:15.419Z,3.00
2023-01-21T07:56:45.413Z,3.10
2023-01-21T07:59:15.102Z,3.10
2023-01-21T08:01:44.035Z,3.10
2023-01-21T08:04:12.804Z,3.10
2023-01-21T08:06:41.956Z,3.10
2023-01-21T08:09:10.889Z,3.10
2023-01-21T08:11:39.579Z,3.10
2023-01-21T08:14:09.991Z,3.10
2023-01-21T08:16:39.021Z,3.00
2023-01-21T08:19:07.423Z,2.90
2023-01-21T08:21:36.245Z,2.80
2023-01-21T08:24:05.178Z,2.80
2023-01-21T08:26:34.057Z,2.60
2023-01-21T08:29:02.446Z,2.50
2023-01-21T08:31:34.774Z,2.40
2023-01-21T08:34:03.275Z,2.50
2023-01-21T08:36:32.173Z,2.40
2023-01-21T08:39:01.984Z,2.40
2023-01-21T08:41:30.854Z,2.50
2023-01-21T08:43:59.209Z,2.30
2023-01-21T08:46:27.969Z,2.40
2023-01-21T08:48:57.615Z,2.30
2023-01-21T08:51:26.449Z,2.30
2023-01-21T08:53:56.971Z,2.30
2023-01-21T08:56:25.699Z,2.30
2023-01-21T08:58:56.942Z,2.40
2023-01-21T09:01:26.995Z,2.30
2023-01-21T09:03:58.124Z,2.30
2023-01-21T09:06:28.465Z,2.30
2023-01-21T09:08:58.350Z,2.30
2023-01-21T09:11:27.689Z,2.20
2023-01-21T09:13:58.067Z,2.10
2023-01-21T09:16:26.936Z,2.10
2023-01-21T09:18:57.084Z,2.00
2023-01-21T09:21:26.232Z,1.90
2023-01-21T09:23:54.861Z,1.90
2023-01-21T09:26:25.319Z,1.90
2023-01-21T09:28:55.440Z,1.90
2023-01-21T09:31:25.954Z,1.90
2023-01-21T09:33:59.156Z,1.90
2023-01-21T09:36:31.485Z,1.90
2023-01-21T09:39:01.153Z,1.80
2023-01-21T09:41:32.338Z,1.80
2023-01-21T09:44:15.137Z,1.80
2023-01-21T09:46:49.214Z,1.70
2023-01-21T09:49:23.318Z,1.70
2023-01-21T09:51:58.826Z,1.70
2023-01-21T09:54:29.522Z,1.60
2023-01-21T09:57:46.208Z,1.60
2023-01-21T10:00:25.708Z,1.50
2023-01-21T10:03:03.235Z,1.50
2023-01-21T10:05:59.014Z,1.50
2023-01-21T10:08:35.162Z,1.50
2023-01-21T10:11:18.866Z,1.50
2023-01-21T10:14:04.637Z,1.50
2023-01-21T10:16:41.439Z,1.50
2023-01-21T10:19:15.358Z,1.50
2023-01-21T10:21:49.645Z,1.50
2023-01-21T10:24:21.811Z,1.50
2023-01-21T10:26:54.085Z,1.50
2023-01-21T10:29:28.082Z,1.50
2023-01-21T10:32:02.339Z,1.50
2023-01-21T10:34:32.958Z,1.50
2023-01-21T10:37:12.586Z,1.60
2023-01-21T10:39:50.303Z,1.50
2023-01-21T10:42:39.017Z,1.60
2023-01-21T10:45:17.677Z,1.50
2023-01-21T10:47:52.466Z,1.60
2023-01-21T10:50:29.699Z,1.60
2023-01-21T10:53:07.797Z,1.70
2023-01-21T10:55:47.305Z,1.60
2023-01-21T10:58:25.684Z,1.60
2023-01-21T11:00:56.205Z,1.60
2023-01-21T11:03:38.865Z,1.50
2023-01-21T11:06:09.579Z,1.60
2023-01-21T11:08:40.151Z,1.60
2023-01-21T11:11:10.457Z,1.60
2023-01-21T11:13:41.291Z,1.60
2023-01-21T11:16:11.056Z,1.60
2023-01-21T11:18:42.366Z,1.60
2023-01-21T11:21:21.164Z,1.50
2023-01-21T11:23:56.549Z,1.60
2023-01-21T11:26:28.658Z,1.60
2023-01-21T11:29:15.486Z,1.60
2023-01-21T11:31:46.571Z,1.60
2023-01-21T11:34:17.376Z,1.70
2023-01-21T11:37:00.690Z,1.60
2023-01-21T11:39:32.861Z,1.70
2023-01-21T11:42:07.779Z,1.70
2023-01-21T11:44:36.129Z,1.70
2023-01-21T11:47:04.857Z,1.70
2023-01-21T11:49:34.133Z,1.70
2023-01-21T11:52:21.156Z,1.70
2023-01-21T11:54:50.903Z,1.70
2023-01-21T11:57:29.795Z,1.60
2023-01-21T12:00:19.824Z,1.70
2023-01-21T12:02:52.760Z,1.70
2023-01-21T12:05:31.959Z,1.70
2023-01-21T12:08:01.936Z,1.80
2023-01-21T12:10:34.662Z,1.80
2023-01-21T12:13:22.036Z,1.80
2023-01-21T12:16:25.979Z,1.80
2023-01-21T12:19:30.223Z,1.80
2023-01-21T12:22:25.732Z,1.80
2023-01-21T12:25:19.871Z,1.80
2023-01-21T12:28:04.621Z,1.80
2023-01-21T12:30:42.160Z,1.80
2023-01-21T12:33:16.748Z,1.80
2023-01-21T12:35:48.879Z,1.70
2023-01-21T12:38:19.837Z,1.80
2023-01-21T12:40:56.601Z,1.80
2023-01-21T12:43:32.924Z,1.80
2023-01-21T12:46:05.601Z,1.80
2023-01-21T12:48:38.900Z,1.80
2023-01-21T12:51:10.981Z,1.80
2023-01-21T12:53:45.617Z,1.80
2023-01-21T12:56:24.901Z,1.80
2023-01-21T12:58:57.954Z,1.80
2023-01-21T13:01:45.541Z,1.80
2023-01-21T13:04:36.792Z,1.80
2023-01-21T13:07:13.769Z,1.80
2023-01-21T13:09:50.154Z,1.80
2023-01-21T13:12:21.725Z,1.80
2023-01-21T13:14:58.254Z,1.90
2023-01-21T13:17:32.410Z,1.80
2023-01-21T13:20:01.031Z,1.80
2023-01-21T13:22:37.862Z,1.80
2023-01-21T13:25:21.634Z,1.80
2023-01-21T13:27:59.091Z,1.80
2023-01-21T13:30:36.564Z,1.90
2023-01-21T13:33:20.771Z,1.80
2023-01-21T13:35:58.413Z,1.80
2023-01-21T13:38:36.627Z,1.90
2023-01-21T13:41:18.877Z,1.90
2023-01-21T13:44:01.932Z,1.90
2023-01-21T13:46:47.164Z,1.90
2023-01-21T13:49:54.565Z,1.80
2023-01-21T13:52:28.220Z,1.90
2023-01-21T13:55:16.486Z,1.90
2023-01-21T13:57:58.273Z,1.90
2023-01-21T14:00:31.242Z,1.90
2023-01-21T14:03:09.834Z,2.00
2023-01-21T14:05:43.463Z,2.00
2023-01-21T14:08:16.599Z,1.90
2023-01-21T14:10:51.705Z,1.90
2023-01-21T14:13:49.202Z,1.90
2023-01-21T14:16:31.981Z,1.90
2023-01-21T14:19:16.863Z,1.90
2023-01-21T14:21:56.286Z,2.00
2023-01-21T14:24:39.025Z,2.00
2023-01-21T14:27:19.769Z,1.90
2023-01-21T14:29:53.123Z,2.00
2023-01-21T14:32:28.621Z,2.00
2023-01-21T14:35:16.887Z,2.00
2023-01-21T14:37:49.335Z,2.00
2023-01-21T14:40:20.701Z,2.00
2023-01-21T14:42:51.000Z,2.00
2023-01-21T14:45:22.289Z,2.00
2023-01-21T14:47:53.379Z,2.00
2023-01-21T14:50:47.124Z,2.00
2023-01-21T14:53:21.568Z,2.00
2023-01-21T14:56:16.803Z,2.00
2023-01-21T14:58:49.553Z,2.00
2023-01-21T15:01:33.792Z,2.00
2023-01-21T15:04:07.498Z,2.00
2023-01-21T15:06:41.610Z,2.00
2023-01-21T15:09:21.444Z,2.00
2023-01-21T15:11:54.628Z,2.00
2023-01-21T15:14:25.690Z,2.00
2023-01-21T15:16:54.032Z,2.00
2023-01-21T15:19:31.308Z,1.90
2023-01-21T15:22:23.426Z,2.00
2023-01-21T15:25:20.556Z,2.00
2023-01-21T15:28:34.222Z,2.00
2023-01-21T15:31:05.779Z,1.90
2023-01-21T15:33:39.702Z,1.90
2023-01-21T15:36:24.472Z,1.90
2023-01-21T15:39:00.100Z,2.00
2023-01-21T15:41:42.903Z,2.00
2023-01-21T15:44:33.014Z,1.90
2023-01-21T15:47:09.104Z,2.00
2023-01-21T15:49:50.075Z,2.00
2023-01-21T15:52:31.249Z,2.00
2023-01-21T15:55:22.348Z,1.90
2023-01-21T15:57:56.445Z,2.00
2023-01-21T16:00:33.379Z,1.90
2023-01-21T16:03:11.885Z,2.00
2023-01-21T16:05:55.112Z,1.90
2023-01-21T16:08:34.539Z,1.90
2023-01-21T16:11:20.642Z,1.90
2023-01-21T16:13:56.736Z,2.00
2023-01-21T16:16:37.970Z,2.00
2023-01-21T16:19:09.797Z,2.00
2023-01-21T16:21:42.922Z,2.00
2023-01-21T16:24:31.797Z,2.00
2023-01-21T16:27:20.246Z,2.00
2023-01-21T16:29:48.994Z,2.00
2023-01-21T16:32:18.648Z,2.10
2023-01-21T16:34:47.960Z,2.00
2023-01-21T16:37:18.711Z,2.00
2023-01-21T16:39:47.696Z,2.10
2023-01-21T16:42:34.102Z,2.00
2023-01-21T16:45:08.115Z,2.00
2023-01-21T16:47:37.775Z,2.10
2023-01-21T16:50:17.250Z,2.10
2023-01-21T16:52:46.117Z,2.00
2023-01-21T16:55:20.725Z,2.10
2023-01-21T16:57:52.752Z,2.10
2023-01-21T17:00:26.958Z,2.10
2023-01-21T17:02:55.660Z,2.10
2023-01-21T17:05:25.879Z,2.10
2023-01-21T17:07:58.431Z,2.10
2023-01-21T17:10:33.670Z,2.00
2023-01-21T17:13:05.947Z,2.00
2023-01-21T17:15:38.372Z,2.10
2023-01-21T17:18:09.826Z,2.10
2023-01-21T17:20:45.433Z,2.10
2023-01-21T17:23:18.728Z,2.10
2023-01-21T17:25:53.454Z,2.10
2023-01-21T17:28:30.684Z,2.10
2023-01-21T17:31:22.089Z,2.10
2023-01-21T17:34:03.703Z,2.10
2023-01-21T17:36:34.106Z,2.10
2023-01-21T17:39:03.255Z,2.10
2023-01-21T17:41:34.502Z,2.10
2023-01-21T17:44:06.359Z,2.10
2023-01-21T17:46:35.370Z,2.10
2023-01-21T17:49:08.475Z,2.10
2023-01-21T17:51:37.411Z,2.10
2023-01-21T17:54:10.084Z,2.00
2023-01-21T17:56:41.673Z,2.00
2023-01-21T17:59:38.038Z,2.00
2023-01-21T18:02:11.830Z,2.00
2023-01-21T18:04:40.715Z,2.00
2023-01-21T18:07:20.053Z,2.00
2023-01-21T18:09:48.245Z,2.00
2023-01-21T18:12:19.415Z,2.00
2023-01-21T18:14:49.274Z,2.10
2023-01-21T18:17:19.681Z,2.00
2023-01-21T18:19:47.880Z,2.00
2023-01-21T18:22:23.116Z,2.00
2023-01-21T18:24:51.799Z,2.00
2023-01-21T18:27:20.664Z,2.00
2023-01-21T18:29:50.572Z,2.00
2023-01-21T18:32:19.490Z,2.00
2023-01-21T18:34:47.861Z,2.00
2023-01-21T18:37:18.464Z,2.10
2023-01-21T18:39:47.016Z,2.00
2023-01-21T18:42:16.524Z,2.00
2023-01-21T18:44:45.075Z,2.00
2023-01-21T18:47:17.690Z,2.00
2023-01-21T18:49:49.323Z,2.00
2023-01-21T18:52:20.318Z,2.00
2023-01-21T18:54:48.658Z,2.00
2023-01-21T18:57:20.666Z,2.00
2023-01-21T18:59:49.251Z,2.00
2023-01-21T19:02:21.102Z,2.00
2023-01-21T19:04:49.697Z,2.00
2023-01-21T19:07:20.312Z,2.00
2023-01-21T19:09:51.119Z,2.00
2023-01-21T19:12:21.400Z,2.00
2023-01-21T19:14:49.872Z,2.00
2023-01-21T19:17:25.931Z,2.00
2023-01-21T19:19:54.532Z,2.00
2023-01-21T19:22:23.668Z,2.00
2023-01-21T19:24:52.361Z,2.00
2023-01-21T19:27:25.226Z,2.00
2023-01-21T19:29:53.508Z,2.00
2023-01-21T19:32:23.600Z,2.00
2023-01-21T19:34:52.098Z,2.00
2023-01-21T19:37:23.589Z,2.00
2023-01-21T19:39:51.919Z,2.00
2023-01-21T19:42:20.490Z,2.00
2023-01-21T19:44:48.902Z,2.00
2023-01-21T19:47:20.965Z,2.00
2023-01-21T19:49:50.830Z,2.00
2023-01-21T19:52:19.358Z,2.00
2023-01-21T19:54:47.501Z,2.00
2023-01-21T19:57:17.174Z,2.00
2023-01-21T19:59:46.138Z,2.00
2023-01-21T20:02:14.989Z,2.00
2023-01-21T20:04:43.615Z,2.00
2023-01-21T20:07:15.243Z,2.00
2023-01-21T20:09:43.879Z,2.00
2023-01-21T20:12:13.583Z,1.90
2023-01-21T20:14:41.843Z,1.90
2023-01-21T20:17:14.251Z,1.90
2023-01-21T20:19:42.528Z,1.90
2023-01-21T20:22:13.461Z,2.00
2023-01-21T20:24:41.815Z,2.00
2023-01-21T20:27:14.492Z,1.90
2023-01-21T20:29:49.663Z,2.00
2023-01-21T20:32:24.291Z,1.90
2023-01-21T20:34:52.681Z,1.90
2023-01-21T20:37:23.064Z,2.00
2023-01-21T20:39:51.289Z,2.00
2023-01-21T20:42:19.851Z,2.00
2023-01-21T20:44:47.978Z,2.00
2023-01-21T20:47:32.642Z,2.00
2023-01-21T20:50:14.990Z,2.00
2023-01-21T20:52:44.881Z,2.00
2023-01-21T20:55:14.129Z,2.00
2023-01-21T20:57:43.021Z,2.00
2023-01-21T21:00:17.109Z,2.00
2023-01-21T21:02:45.888Z,2.00
2023-01-21T21:05:15.806Z,2.00
2023-01-21T21:07:45.985Z,2.00
2023-01-21T21:10:20.251Z,2.00
2023-01-21T21:12:49.359Z,2.00
2023-01-21T21:15:19.494Z,2.00
2023-01-21T21:17:48.749Z,2.00
2023-01-21T21:20:19.245Z,2.00
2023-01-21T21:22:49.339Z,2.00
2023-01-21T21:25:20.137Z,2.00
2023-01-21T21:27:49.351Z,2.00
2023-01-21T21:30:20.759Z,2.00
2023-01-21T21:32:49.304Z,2.00
2023-01-21T21:35:25.412Z,1.90
2023-01-21T21:37:56.662Z,1.90
2023-01-21T21:40:27.373Z,1.90
2023-01-21T21:43:13.584Z,2.00
2023-01-21T21:45:58.308Z,2.00
2023-01-21T21:48:39.143Z,2.00
2023-01-21T21:51:08.039Z,2.00
2023-01-21T21:53:38.432Z,2.00
2023-01-21T21:56:08.894Z,2.10
2023-01-21T21:58:37.900Z,2.00
2023-01-21T22:01:11.614Z,2.00
2023-01-21T22:03:40.706Z,2.00
2023-01-21T22:06:09.682Z,2.00
2023-01-21T22:08:41.618Z,2.00
2023-01-21T22:11:12.231Z,2.00
2023-01-21T22:13:43.498Z,2.00
2023-01-21T22:16:14.480Z,2.00
2023-01-21T22:18:43.024Z,2.00
2023-01-21T22:21:14.728Z,2.00
2023-01-21T22:23:44.779Z,2.00
2023-01-21T22:26:15.232Z,2.00
2023-01-21T22:28:44.720Z,2.00
2023-01-21T22:31:15.382Z,2.10
2023-01-21T22:33:44.227Z,2.10
2023-01-21T22:36:14.451Z,2.10
2023-01-21T22:38:45.249Z,2.10
2023-01-21T22:41:14.184Z,2.10
2023-01-21T22:43:44.969Z,2.10
2023-01-21T22:46:14.772Z,2.10
2023-01-21T22:48:43.312Z,2.10
2023-01-21T22:51:13.453Z,2.20
2023-01-21T22:53:43.906Z,2.10
2023-01-21T22:56:15.206Z,2.10
2023-01-21T22:58:44.003Z,2.10
2023-01-21T23:01:23.105Z,2.10
2023-01-21T23:03:51.872Z,2.10
2023-01-21T23:06:20.884Z,2.10
2023-01-21T23:08:49.488Z,2.10
2023-01-21T23:11:20.427Z,2.10
2023-01-21T23:13:50.129Z,2.10
2023-01-21T23:16:20.953Z,2.10
2023-01-21T23:18:50.361Z,2.20
2023-01-21T23:21:20.799Z,2.20
2023-01-21T23:23:49.967Z,2.20
2023-01-21T23:26:20.337Z,2.20
2023-01-21T23:28:49.325Z,2.10
2023-01-21T23:31:18.379Z,2.20
2023-01-21T23:33:50.679Z,2.20
2023-01-21T23:36:19.089Z,2.20
2023-01-21T23:38:47.676Z,2.20
2023-01-21T23:41:17.342Z,2.10
2023-01-21T23:43:47.468Z,2.10
2023-01-21T23:46:18.923Z,2.20
2023-01-21T23:48:47.493Z,2.10
2023-01-21T23:51:17.681Z,2.20
2023-01-21T23:53:46.690Z,2.20
2023-01-21T23:56:17.020Z,2.10
2023-01-21T23:58:47.134Z,2.10
